sensor_id;sensor_type;location;lat;lon;timestamp;temperature;humidity
10149;DHT22;5115;50.920;6.376;2023-04-08T00:00:56;10.20;99.90
10149;DHT22;5115;50.920;6.376;2023-04-08T00:03:22;10.20;99.90
10149;DHT22;5115;50.920;6.376;2023-04-08T00:05:47;10.10;99.90
10149;DHT22;5115;50.920;6.376;2023-04-08T00:08:13;10.00;99.90
10149;DHT22;5115;50.920;6.376;2023-04-08T00:10:38;10.10;99.90
10149;DHT22;5115;50.920;6.376;2023-04-08T00:13:04;10.00;99.90
10149;DHT22;5115;50.920;6.376;2023-04-08T00:15:30;10.00;99.90
10149;DHT22;5115;50.920;6.376;2023-04-08T00:17:55;10.00;99.90
10149;DHT22;5115;50.920;6.376;2023-04-08T00:20:22;9.90;99.90
10149;DHT22;5115;50.920;6.376;2023-04-08T00:22:48;9.80;99.90
10149;DHT22;5115;50.920;6.376;2023-04-08T00:25:14;9.80;99.90
10149;DHT22;5115;50.920;6.376;2023-04-08T00:27:39;9.90;99.90
10149;DHT22;5115;50.920;6.376;2023-04-08T00:30:05;9.90;99.90
10149;DHT22;5115;50.920;6.376;2023-04-08T00:32:31;9.90;99.90
10149;DHT22;5115;50.920;6.376;2023-04-08T00:34:57;9.90;99.90
10149;DHT22;5115;50.920;6.376;2023-04-08T00:37:23;9.80;99.90
10149;DHT22;5115;50.920;6.376;2023-04-08T00:39:49;9.80;99.90
10149;DHT22;5115;50.920;6.376;2023-04-08T00:42:16;9.80;99.90
10149;DHT22;5115;50.920;6.376;2023-04-08T00:44:41;9.90;99.90
10149;DHT22;5115;50.920;6.376;2023-04-08T00:47:11;9.90;99.90
10149;DHT22;5115;50.920;6.376;2023-04-08T00:49:37;9.90;99.90
10149;DHT22;5115;50.920;6.376;2023-04-08T00:52:02;9.80;99.90
10149;DHT22;5115;50.920;6.376;2023-04-08T00:54:29;9.80;99.90
10149;DHT22;5115;50.920;6.376;2023-04-08T00:56:56;9.80;99.90
10149;DHT22;5115;50.920;6.376;2023-04-08T00:59:21;10.60;99.90
10149;DHT22;5115;50.920;6.376;2023-04-08T01:01:58;9.80;99.90
10149;DHT22;5115;50.920;6.376;2023-04-08T01:07:45;9.90;99.90
10149;DHT22;5115;50.920;6.376;2023-04-08T01:10:16;9.90;99.90
10149;DHT22;5115;50.920;6.376;2023-04-08T01:12:49;9.90;99.90
10149;DHT22;5115;50.920;6.376;2023-04-08T01:15:16;9.90;99.90
10149;DHT22;5115;50.920;6.376;2023-04-08T01:17:43;9.90;99.90
10149;DHT22;5115;50.920;6.376;2023-04-08T01:20:10;9.90;99.90
10149;DHT22;5115;50.920;6.376;2023-04-08T01:25:14;9.90;99.90
10149;DHT22;5115;50.920;6.376;2023-04-08T01:27:41;9.90;99.90
10149;DHT22;5115;50.920;6.376;2023-04-08T01:30:08;9.90;99.90
10149;DHT22;5115;50.920;6.376;2023-04-08T01:32:34;9.90;99.90
10149;DHT22;5115;50.920;6.376;2023-04-08T01:35:01;9.90;99.90
10149;DHT22;5115;50.920;6.376;2023-04-08T01:37:28;9.90;99.90
10149;DHT22;5115;50.920;6.376;2023-04-08T01:39:55;9.80;99.90
10149;DHT22;5115;50.920;6.376;2023-04-08T01:42:23;9.90;99.90
10149;DHT22;5115;50.920;6.376;2023-04-08T01:44:51;9.90;99.90
10149;DHT22;5115;50.920;6.376;2023-04-08T01:47:17;9.90;99.90
10149;DHT22;5115;50.920;6.376;2023-04-08T01:49:43;9.80;99.90
10149;DHT22;5115;50.920;6.376;2023-04-08T01:52:10;9.80;99.90
10149;DHT22;5115;50.920;6.376;2023-04-08T01:54:37;9.80;99.90
10149;DHT22;5115;50.920;6.376;2023-04-08T01:57:04;9.80;99.90
10149;DHT22;5115;50.920;6.376;2023-04-08T01:59:34;9.90;99.90
10149;DHT22;5115;50.920;6.376;2023-04-08T02:02:01;9.80;99.90
10149;DHT22;5115;50.920;6.376;2023-04-08T02:04:29;9.80;99.90
10149;DHT22;5115;50.920;6.376;2023-04-08T02:06:55;9.80;99.90
10149;DHT22;5115;50.920;6.376;2023-04-08T02:09:21;9.80;99.90
10149;DHT22;5115;50.920;6.376;2023-04-08T02:11:46;9.80;99.90
10149;DHT22;5115;50.920;6.376;2023-04-08T02:14:12;9.80;99.90
10149;DHT22;5115;50.920;6.376;2023-04-08T02:16:48;9.80;99.90
10149;DHT22;5115;50.920;6.376;2023-04-08T02:19:19;9.70;99.90
10149;DHT22;5115;50.920;6.376;2023-04-08T02:21:49;9.70;99.90
10149;DHT22;5115;50.920;6.376;2023-04-08T02:24:17;9.70;99.90
10149;DHT22;5115;50.920;6.376;2023-04-08T02:26:43;9.80;99.90
10149;DHT22;5115;50.920;6.376;2023-04-08T02:29:12;9.70;99.90
10149;DHT22;5115;50.920;6.376;2023-04-08T02:31:40;9.80;99.90
10149;DHT22;5115;50.920;6.376;2023-04-08T02:34:09;9.80;99.90
10149;DHT22;5115;50.920;6.376;2023-04-08T02:36:34;9.80;99.90
10149;DHT22;5115;50.920;6.376;2023-04-08T02:39:00;9.90;99.90
10149;DHT22;5115;50.920;6.376;2023-04-08T02:41:30;9.80;99.90
10149;DHT22;5115;50.920;6.376;2023-04-08T02:43:56;9.80;99.90
10149;DHT22;5115;50.920;6.376;2023-04-08T02:46:21;10.20;99.90
10149;DHT22;5115;50.920;6.376;2023-04-08T02:48:47;9.80;99.90
10149;DHT22;5115;50.920;6.376;2023-04-08T02:51:13;9.90;99.90
10149;DHT22;5115;50.920;6.376;2023-04-08T02:53:38;9.90;99.90
10149;DHT22;5115;50.920;6.376;2023-04-08T02:56:04;9.80;99.90
10149;DHT22;5115;50.920;6.376;2023-04-08T02:58:30;9.80;99.90
10149;DHT22;5115;50.920;6.376;2023-04-08T03:00:56;9.80;99.90
10149;DHT22;5115;50.920;6.376;2023-04-08T03:03:21;9.80;99.90
10149;DHT22;5115;50.920;6.376;2023-04-08T03:05:54;9.80;99.90
10149;DHT22;5115;50.920;6.376;2023-04-08T03:08:20;9.80;99.90
10149;DHT22;5115;50.920;6.376;2023-04-08T03:10:46;9.80;99.90
10149;DHT22;5115;50.920;6.376;2023-04-08T03:13:11;9.80;99.90
10149;DHT22;5115;50.920;6.376;2023-04-08T03:15:37;9.80;99.90
10149;DHT22;5115;50.920;6.376;2023-04-08T03:18:02;9.80;99.90
10149;DHT22;5115;50.920;6.376;2023-04-08T03:20:28;9.80;99.90
10149;DHT22;5115;50.920;6.376;2023-04-08T03:22:53;9.70;99.90
10149;DHT22;5115;50.920;6.376;2023-04-08T03:25:19;9.80;99.90
10149;DHT22;5115;50.920;6.376;2023-04-08T03:27:44;9.80;99.90
10149;DHT22;5115;50.920;6.376;2023-04-08T03:30:10;9.70;99.90
10149;DHT22;5115;50.920;6.376;2023-04-08T03:32:36;9.70;99.90
10149;DHT22;5115;50.920;6.376;2023-04-08T03:35:03;9.70;99.90
10149;DHT22;5115;50.920;6.376;2023-04-08T03:37:29;9.70;99.90
10149;DHT22;5115;50.920;6.376;2023-04-08T03:39:54;9.70;99.90
10149;DHT22;5115;50.920;6.376;2023-04-08T03:42:20;9.70;99.90
10149;DHT22;5115;50.920;6.376;2023-04-08T03:44:46;9.70;99.90
10149;DHT22;5115;50.920;6.376;2023-04-08T03:47:11;9.70;99.90
10149;DHT22;5115;50.920;6.376;2023-04-08T03:49:37;9.70;99.90
10149;DHT22;5115;50.920;6.376;2023-04-08T03:52:02;9.70;99.90
10149;DHT22;5115;50.920;6.376;2023-04-08T03:54:28;9.70;99.90
10149;DHT22;5115;50.920;6.376;2023-04-08T03:56:53;9.70;99.90
10149;DHT22;5115;50.920;6.376;2023-04-08T03:59:19;9.70;99.90
10149;DHT22;5115;50.920;6.376;2023-04-08T04:01:44;9.70;99.90
10149;DHT22;5115;50.920;6.376;2023-04-08T04:04:10;9.70;99.90
10149;DHT22;5115;50.920;6.376;2023-04-08T04:06:36;9.70;99.90
10149;DHT22;5115;50.920;6.376;2023-04-08T04:09:02;9.70;99.90
10149;DHT22;5115;50.920;6.376;2023-04-08T04:11:27;9.80;99.90
10149;DHT22;5115;50.920;6.376;2023-04-08T04:13:53;9.80;99.90
10149;DHT22;5115;50.920;6.376;2023-04-08T04:16:18;9.70;99.90
10149;DHT22;5115;50.920;6.376;2023-04-08T04:18:44;9.70;99.90
10149;DHT22;5115;50.920;6.376;2023-04-08T04:21:09;9.70;99.90
10149;DHT22;5115;50.920;6.376;2023-04-08T04:23:35;9.60;99.90
10149;DHT22;5115;50.920;6.376;2023-04-08T04:26:00;9.70;99.90
10149;DHT22;5115;50.920;6.376;2023-04-08T04:28:26;9.70;99.90
10149;DHT22;5115;50.920;6.376;2023-04-08T04:30:51;9.70;99.90
10149;DHT22;5115;50.920;6.376;2023-04-08T04:33:17;9.70;99.90
10149;DHT22;5115;50.920;6.376;2023-04-08T04:35:42;9.80;99.90
10149;DHT22;5115;50.920;6.376;2023-04-08T04:38:08;9.70;99.90
10149;DHT22;5115;50.920;6.376;2023-04-08T04:40:37;9.70;99.90
10149;DHT22;5115;50.920;6.376;2023-04-08T04:43:03;9.70;99.90
10149;DHT22;5115;50.920;6.376;2023-04-08T04:45:29;9.80;99.90
10149;DHT22;5115;50.920;6.376;2023-04-08T04:47:54;9.80;99.90
10149;DHT22;5115;50.920;6.376;2023-04-08T04:50:20;9.80;99.90
10149;DHT22;5115;50.920;6.376;2023-04-08T04:52:45;9.80;99.90
10149;DHT22;5115;50.920;6.376;2023-04-08T04:55:11;9.80;99.90
10149;DHT22;5115;50.920;6.376;2023-04-08T04:57:37;9.80;99.90
10149;DHT22;5115;50.920;6.376;2023-04-08T05:00:03;9.80;99.90
10149;DHT22;5115;50.920;6.376;2023-04-08T05:02:28;9.80;99.90
10149;DHT22;5115;50.920;6.376;2023-04-08T05:04:54;9.80;99.90
10149;DHT22;5115;50.920;6.376;2023-04-08T05:07:20;9.70;99.90
10149;DHT22;5115;50.920;6.376;2023-04-08T05:09:46;9.70;99.90
10149;DHT22;5115;50.920;6.376;2023-04-08T05:12:12;9.70;99.90
10149;DHT22;5115;50.920;6.376;2023-04-08T05:14:38;9.70;99.90
10149;DHT22;5115;50.920;6.376;2023-04-08T05:17:03;9.70;99.90
10149;DHT22;5115;50.920;6.376;2023-04-08T05:19:30;9.70;99.90
10149;DHT22;5115;50.920;6.376;2023-04-08T05:21:55;9.80;99.90
10149;DHT22;5115;50.920;6.376;2023-04-08T05:24:21;9.70;99.90
10149;DHT22;5115;50.920;6.376;2023-04-08T05:26:46;9.70;99.90
10149;DHT22;5115;50.920;6.376;2023-04-08T05:29:16;9.80;99.90
10149;DHT22;5115;50.920;6.376;2023-04-08T05:31:43;9.70;99.90
10149;DHT22;5115;50.920;6.376;2023-04-08T05:34:09;9.80;99.90
10149;DHT22;5115;50.920;6.376;2023-04-08T05:36:35;9.80;99.90
10149;DHT22;5115;50.920;6.376;2023-04-08T05:39:01;9.90;99.90
10149;DHT22;5115;50.920;6.376;2023-04-08T05:41:27;9.90;99.90
10149;DHT22;5115;50.920;6.376;2023-04-08T05:43:52;10.30;99.90
10149;DHT22;5115;50.920;6.376;2023-04-08T05:46:18;9.90;99.90
10149;DHT22;5115;50.920;6.376;2023-04-08T05:48:43;9.80;99.90
10149;DHT22;5115;50.920;6.376;2023-04-08T05:51:13;9.90;99.90
10149;DHT22;5115;50.920;6.376;2023-04-08T05:53:39;9.80;99.90
10149;DHT22;5115;50.920;6.376;2023-04-08T05:56:04;9.80;99.90
10149;DHT22;5115;50.920;6.376;2023-04-08T05:58:30;9.80;99.90
10149;DHT22;5115;50.920;6.376;2023-04-08T06:00:55;9.80;99.90
10149;DHT22;5115;50.920;6.376;2023-04-08T06:03:21;9.80;99.90
10149;DHT22;5115;50.920;6.376;2023-04-08T06:05:46;9.80;99.90
10149;DHT22;5115;50.920;6.376;2023-04-08T06:08:12;9.80;99.90
10149;DHT22;5115;50.920;6.376;2023-04-08T06:10:38;9.80;99.90
10149;DHT22;5115;50.920;6.376;2023-04-08T06:13:03;9.80;99.90
10149;DHT22;5115;50.920;6.376;2023-04-08T06:15:29;9.80;99.90
10149;DHT22;5115;50.920;6.376;2023-04-08T06:17:54;9.80;99.90
10149;DHT22;5115;50.920;6.376;2023-04-08T06:20:20;9.90;99.90
10149;DHT22;5115;50.920;6.376;2023-04-08T06:22:45;9.90;99.90
10149;DHT22;5115;50.920;6.376;2023-04-08T06:25:11;9.90;99.90
10149;DHT22;5115;50.920;6.376;2023-04-08T06:27:36;9.90;99.90
10149;DHT22;5115;50.920;6.376;2023-04-08T06:30:02;10.00;99.90
10149;DHT22;5115;50.920;6.376;2023-04-08T06:32:28;10.00;99.90
10149;DHT22;5115;50.920;6.376;2023-04-08T06:34:53;10.00;99.90
10149;DHT22;5115;50.920;6.376;2023-04-08T06:37:19;10.00;99.90
10149;DHT22;5115;50.920;6.376;2023-04-08T06:39:44;10.10;99.90
10149;DHT22;5115;50.920;6.376;2023-04-08T06:42:10;10.10;99.90
10149;DHT22;5115;50.920;6.376;2023-04-08T06:44:36;10.10;99.90
10149;DHT22;5115;50.920;6.376;2023-04-08T06:47:01;10.10;99.90
10149;DHT22;5115;50.920;6.376;2023-04-08T06:49:27;10.20;99.90
10149;DHT22;5115;50.920;6.376;2023-04-08T06:51:52;10.20;99.90
10149;DHT22;5115;50.920;6.376;2023-04-08T06:54:18;10.80;99.90
10149;DHT22;5115;50.920;6.376;2023-04-08T06:56:44;10.30;99.90
10149;DHT22;5115;50.920;6.376;2023-04-08T06:59:10;10.30;99.90
10149;DHT22;5115;50.920;6.376;2023-04-08T07:01:35;10.20;99.90
10149;DHT22;5115;50.920;6.376;2023-04-08T07:04:01;10.20;99.90
10149;DHT22;5115;50.920;6.376;2023-04-08T07:06:27;10.30;99.90
10149;DHT22;5115;50.920;6.376;2023-04-08T07:08:52;10.30;99.90
10149;DHT22;5115;50.920;6.376;2023-04-08T07:11:18;10.30;99.90
10149;DHT22;5115;50.920;6.376;2023-04-08T07:13:43;10.30;99.90
10149;DHT22;5115;50.920;6.376;2023-04-08T07:16:09;10.30;99.90
10149;DHT22;5115;50.920;6.376;2023-04-08T07:18:35;10.30;99.90
10149;DHT22;5115;50.920;6.376;2023-04-08T07:21:00;10.40;99.90
10149;DHT22;5115;50.920;6.376;2023-04-08T07:23:26;10.40;99.90
10149;DHT22;5115;50.920;6.376;2023-04-08T07:25:52;10.30;99.90
10149;DHT22;5115;50.920;6.376;2023-04-08T07:28:18;10.40;99.90
10149;DHT22;5115;50.920;6.376;2023-04-08T07:30:44;10.40;99.90
10149;DHT22;5115;50.920;6.376;2023-04-08T07:33:10;10.40;99.90
10149;DHT22;5115;50.920;6.376;2023-04-08T07:35:35;10.40;99.90
10149;DHT22;5115;50.920;6.376;2023-04-08T07:38:01;10.50;99.90
10149;DHT22;5115;50.920;6.376;2023-04-08T07:40:26;10.50;99.90
10149;DHT22;5115;50.920;6.376;2023-04-08T07:42:52;10.60;99.90
10149;DHT22;5115;50.920;6.376;2023-04-08T07:45:17;10.70;99.90
10149;DHT22;5115;50.920;6.376;2023-04-08T07:47:43;10.70;99.90
10149;DHT22;5115;50.920;6.376;2023-04-08T07:50:09;11.10;99.90
10149;DHT22;5115;50.920;6.376;2023-04-08T07:52:35;11.60;99.90
10149;DHT22;5115;50.920;6.376;2023-04-08T07:55:00;12.00;99.90
10149;DHT22;5115;50.920;6.376;2023-04-08T07:57:26;12.30;99.90
10149;DHT22;5115;50.920;6.376;2023-04-08T07:59:52;12.40;99.90
10149;DHT22;5115;50.920;6.376;2023-04-08T08:02:17;12.40;99.90
10149;DHT22;5115;50.920;6.376;2023-04-08T08:04:43;12.40;99.90
10149;DHT22;5115;50.920;6.376;2023-04-08T08:07:08;12.20;99.90
10149;DHT22;5115;50.920;6.376;2023-04-08T08:09:34;12.00;99.90
10149;DHT22;5115;50.920;6.376;2023-04-08T08:12:00;12.00;99.90
10149;DHT22;5115;50.920;6.376;2023-04-08T08:14:25;12.10;99.90
10149;DHT22;5115;50.920;6.376;2023-04-08T08:16:51;12.00;99.90
10149;DHT22;5115;50.920;6.376;2023-04-08T08:19:19;12.10;99.90
10149;DHT22;5115;50.920;6.376;2023-04-08T08:21:45;11.90;99.90
10149;DHT22;5115;50.920;6.376;2023-04-08T08:24:10;11.90;99.90
10149;DHT22;5115;50.920;6.376;2023-04-08T08:26:36;11.90;99.90
10149;DHT22;5115;50.920;6.376;2023-04-08T08:29:02;11.80;99.90
10149;DHT22;5115;50.920;6.376;2023-04-08T08:31:28;11.90;99.90
10149;DHT22;5115;50.920;6.376;2023-04-08T08:33:53;11.90;99.90
10149;DHT22;5115;50.920;6.376;2023-04-08T08:36:19;11.80;99.90
10149;DHT22;5115;50.920;6.376;2023-04-08T08:38:44;11.80;99.90
10149;DHT22;5115;50.920;6.376;2023-04-08T08:41:10;11.90;99.90
10149;DHT22;5115;50.920;6.376;2023-04-08T08:43:36;11.90;99.90
10149;DHT22;5115;50.920;6.376;2023-04-08T08:46:02;11.90;99.90
10149;DHT22;5115;50.920;6.376;2023-04-08T08:48:28;12.10;99.90
10149;DHT22;5115;50.920;6.376;2023-04-08T08:50:53;12.10;99.90
10149;DHT22;5115;50.920;6.376;2023-04-08T08:53:19;12.20;99.90
10149;DHT22;5115;50.920;6.376;2023-04-08T08:55:47;12.60;99.90
10149;DHT22;5115;50.920;6.376;2023-04-08T08:58:13;13.00;99.90
10149;DHT22;5115;50.920;6.376;2023-04-08T09:00:41;14.00;99.90
10149;DHT22;5115;50.920;6.376;2023-04-08T09:06:00;15.70;99.90
10149;DHT22;5115;50.920;6.376;2023-04-08T09:08:36;16.20;99.90
10149;DHT22;5115;50.920;6.376;2023-04-08T09:11:18;16.20;99.90
10149;DHT22;5115;50.920;6.376;2023-04-08T09:13:46;15.90;99.90
10149;DHT22;5115;50.920;6.376;2023-04-08T09:16:16;15.60;99.90
10149;DHT22;5115;50.920;6.376;2023-04-08T09:18:43;15.20;99.90
10149;DHT22;5115;50.920;6.376;2023-04-08T09:21:11;14.60;99.90
10149;DHT22;5115;50.920;6.376;2023-04-08T09:23:50;14.70;99.90
10149;DHT22;5115;50.920;6.376;2023-04-08T09:26:18;15.20;99.90
10149;DHT22;5115;50.920;6.376;2023-04-08T09:29:06;15.40;99.90
10149;DHT22;5115;50.920;6.376;2023-04-08T09:31:34;16.10;99.90
10149;DHT22;5115;50.920;6.376;2023-04-08T09:34:15;16.70;99.90
10149;DHT22;5115;50.920;6.376;2023-04-08T09:36:42;17.70;99.90
10149;DHT22;5115;50.920;6.376;2023-04-08T09:39:09;18.40;99.90
10149;DHT22;5115;50.920;6.376;2023-04-08T09:41:36;18.90;99.90
10149;DHT22;5115;50.920;6.376;2023-04-08T09:44:03;19.10;99.90
10149;DHT22;5115;50.920;6.376;2023-04-08T09:49:26;18.70;99.90
10149;DHT22;5115;50.920;6.376;2023-04-08T09:51:58;18.50;99.90
10149;DHT22;5115;50.920;6.376;2023-04-08T09:54:54;18.30;99.90
10149;DHT22;5115;50.920;6.376;2023-04-08T09:57:30;18.00;99.90
10149;DHT22;5115;50.920;6.376;2023-04-08T10:00:04;18.00;99.90
10149;DHT22;5115;50.920;6.376;2023-04-08T10:02:35;17.80;99.90
10149;DHT22;5115;50.920;6.376;2023-04-08T10:05:05;17.50;99.90
10149;DHT22;5115;50.920;6.376;2023-04-08T10:07:33;17.60;99.90
10149;DHT22;5115;50.920;6.376;2023-04-08T10:09:58;17.50;99.90
10149;DHT22;5115;50.920;6.376;2023-04-08T10:12:24;17.50;99.90
10149;DHT22;5115;50.920;6.376;2023-04-08T10:17:54;17.30;99.90
10149;DHT22;5115;50.920;6.376;2023-04-08T10:23:21;17.30;99.90
10149;DHT22;5115;50.920;6.376;2023-04-08T10:26:29;17.20;99.90
10149;DHT22;5115;50.920;6.376;2023-04-08T10:31:40;16.80;99.90
10149;DHT22;5115;50.920;6.376;2023-04-08T10:34:20;16.60;99.90
10149;DHT22;5115;50.920;6.376;2023-04-08T10:36:46;15.90;99.90
10149;DHT22;5115;50.920;6.376;2023-04-08T10:39:13;16.20;99.90
10149;DHT22;5115;50.920;6.376;2023-04-08T10:41:44;16.10;99.90
10149;DHT22;5115;50.920;6.376;2023-04-08T10:44:17;16.20;99.90
10149;DHT22;5115;50.920;6.376;2023-04-08T10:46:44;15.60;99.90
10149;DHT22;5115;50.920;6.376;2023-04-08T10:49:10;15.40;99.90
10149;DHT22;5115;50.920;6.376;2023-04-08T10:51:36;15.00;99.90
10149;DHT22;5115;50.920;6.376;2023-04-08T10:56:32;14.90;99.90
10149;DHT22;5115;50.920;6.376;2023-04-08T10:58:58;14.90;99.90
10149;DHT22;5115;50.920;6.376;2023-04-08T11:01:24;15.00;99.90
10149;DHT22;5115;50.920;6.376;2023-04-08T11:03:50;15.10;99.90
10149;DHT22;5115;50.920;6.376;2023-04-08T11:06:16;15.10;99.90
10149;DHT22;5115;50.920;6.376;2023-04-08T11:08:42;15.30;99.90
10149;DHT22;5115;50.920;6.376;2023-04-08T11:11:09;15.30;99.90
10149;DHT22;5115;50.920;6.376;2023-04-08T11:13:38;15.30;99.90
10149;DHT22;5115;50.920;6.376;2023-04-08T11:16:06;15.20;99.90
10149;DHT22;5115;50.920;6.376;2023-04-08T11:18:39;15.10;99.90
10149;DHT22;5115;50.920;6.376;2023-04-08T11:21:09;15.30;99.90
10149;DHT22;5115;50.920;6.376;2023-04-08T11:23:35;15.50;99.90
10149;DHT22;5115;50.920;6.376;2023-04-08T11:26:01;15.70;99.90
10149;DHT22;5115;50.920;6.376;2023-04-08T11:28:27;15.70;99.90
10149;DHT22;5115;50.920;6.376;2023-04-08T11:30:54;15.70;99.90
10149;DHT22;5115;50.920;6.376;2023-04-08T11:33:19;15.80;99.90
10149;DHT22;5115;50.920;6.376;2023-04-08T11:35:50;16.10;99.90
10149;DHT22;5115;50.920;6.376;2023-04-08T11:38:16;16.10;99.90
10149;DHT22;5115;50.920;6.376;2023-04-08T11:40:51;15.90;99.90
10149;DHT22;5115;50.920;6.376;2023-04-08T11:43:17;15.90;99.90
10149;DHT22;5115;50.920;6.376;2023-04-08T11:45:43;15.80;99.90
10149;DHT22;5115;50.920;6.376;2023-04-08T11:48:14;15.80;99.90
10149;DHT22;5115;50.920;6.376;2023-04-08T11:50:40;15.70;99.90
10149;DHT22;5115;50.920;6.376;2023-04-08T11:53:20;15.40;99.90
10149;DHT22;5115;50.920;6.376;2023-04-08T11:55:47;15.40;99.90
10149;DHT22;5115;50.920;6.376;2023-04-08T11:58:13;15.10;99.90
10149;DHT22;5115;50.920;6.376;2023-04-08T12:00:39;15.20;99.90
10149;DHT22;5115;50.920;6.376;2023-04-08T12:03:05;15.40;99.90
10149;DHT22;5115;50.920;6.376;2023-04-08T12:05:31;15.80;99.90
10149;DHT22;5115;50.920;6.376;2023-04-08T12:07:57;15.80;99.90
10149;DHT22;5115;50.920;6.376;2023-04-08T12:10:22;15.90;99.90
10149;DHT22;5115;50.920;6.376;2023-04-08T12:12:49;16.10;99.90
10149;DHT22;5115;50.920;6.376;2023-04-08T12:15:15;16.10;99.90
10149;DHT22;5115;50.920;6.376;2023-04-08T12:17:41;16.10;99.90
10149;DHT22;5115;50.920;6.376;2023-04-08T12:20:08;16.10;99.90
10149;DHT22;5115;50.920;6.376;2023-04-08T12:22:34;16.20;99.90
10149;DHT22;5115;50.920;6.376;2023-04-08T12:25:00;16.00;99.90
10149;DHT22;5115;50.920;6.376;2023-04-08T12:27:27;16.00;99.90
10149;DHT22;5115;50.920;6.376;2023-04-08T12:29:53;15.70;99.90
10149;DHT22;5115;50.920;6.376;2023-04-08T12:32:19;15.60;99.90
10149;DHT22;5115;50.920;6.376;2023-04-08T12:34:46;15.20;99.90
10149;DHT22;5115;50.920;6.376;2023-04-08T12:37:11;15.00;99.90
10149;DHT22;5115;50.920;6.376;2023-04-08T12:39:37;14.90;99.90
10149;DHT22;5115;50.920;6.376;2023-04-08T12:42:03;14.90;99.90
10149;DHT22;5115;50.920;6.376;2023-04-08T12:44:29;15.10;99.90
10149;DHT22;5115;50.920;6.376;2023-04-08T12:46:55;15.20;99.90
10149;DHT22;5115;50.920;6.376;2023-04-08T12:49:22;15.30;99.90
10149;DHT22;5115;50.920;6.376;2023-04-08T12:51:48;15.20;99.90
10149;DHT22;5115;50.920;6.376;2023-04-08T12:54:14;15.30;99.90
10149;DHT22;5115;50.920;6.376;2023-04-08T12:56:40;15.20;99.90
10149;DHT22;5115;50.920;6.376;2023-04-08T12:59:07;15.10;99.90
10149;DHT22;5115;50.920;6.376;2023-04-08T13:01:33;15.30;99.90
10149;DHT22;5115;50.920;6.376;2023-04-08T13:03:59;15.40;99.90
10149;DHT22;5115;50.920;6.376;2023-04-08T13:06:25;15.40;99.90
10149;DHT22;5115;50.920;6.376;2023-04-08T13:08:51;15.30;99.90
10149;DHT22;5115;50.920;6.376;2023-04-08T13:11:16;15.30;99.90
10149;DHT22;5115;50.920;6.376;2023-04-08T13:13:42;15.40;99.90
10149;DHT22;5115;50.920;6.376;2023-04-08T13:16:08;15.40;99.90
10149;DHT22;5115;50.920;6.376;2023-04-08T13:18:34;15.20;99.90
10149;DHT22;5115;50.920;6.376;2023-04-08T13:20:59;15.50;99.90
10149;DHT22;5115;50.920;6.376;2023-04-08T13:23:25;15.30;99.90
10149;DHT22;5115;50.920;6.376;2023-04-08T13:25:50;15.40;99.90
10149;DHT22;5115;50.920;6.376;2023-04-08T13:28:16;15.10;99.90
10149;DHT22;5115;50.920;6.376;2023-04-08T13:30:41;14.90;99.90
10149;DHT22;5115;50.920;6.376;2023-04-08T13:33:07;14.80;99.90
10149;DHT22;5115;50.920;6.376;2023-04-08T13:35:33;14.90;99.90
10149;DHT22;5115;50.920;6.376;2023-04-08T13:37:58;14.80;99.90
10149;DHT22;5115;50.920;6.376;2023-04-08T13:40:24;14.50;99.90
10149;DHT22;5115;50.920;6.376;2023-04-08T13:42:49;14.40;99.90
10149;DHT22;5115;50.920;6.376;2023-04-08T13:45:15;14.30;99.90
10149;DHT22;5115;50.920;6.376;2023-04-08T13:47:40;14.30;99.90
10149;DHT22;5115;50.920;6.376;2023-04-08T13:50:07;14.20;99.90
10149;DHT22;5115;50.920;6.376;2023-04-08T13:52:32;14.10;99.90
10149;DHT22;5115;50.920;6.376;2023-04-08T13:54:58;14.20;99.90
10149;DHT22;5115;50.920;6.376;2023-04-08T13:57:23;14.10;99.90
10149;DHT22;5115;50.920;6.376;2023-04-08T13:59:49;14.20;99.90
10149;DHT22;5115;50.920;6.376;2023-04-08T14:02:15;14.30;99.90
10149;DHT22;5115;50.920;6.376;2023-04-08T14:04:40;14.40;99.90
10149;DHT22;5115;50.920;6.376;2023-04-08T14:07:07;14.50;99.90
10149;DHT22;5115;50.920;6.376;2023-04-08T14:09:32;14.60;99.90
10149;DHT22;5115;50.920;6.376;2023-04-08T14:11:58;14.70;99.90
10149;DHT22;5115;50.920;6.376;2023-04-08T14:14:23;14.60;99.90
10149;DHT22;5115;50.920;6.376;2023-04-08T14:16:49;14.70;99.90
10149;DHT22;5115;50.920;6.376;2023-04-08T14:19:14;14.80;99.90
10149;DHT22;5115;50.920;6.376;2023-04-08T14:21:40;14.80;99.90
10149;DHT22;5115;50.920;6.376;2023-04-08T14:24:06;14.70;99.90
10149;DHT22;5115;50.920;6.376;2023-04-08T14:26:31;14.60;99.90
10149;DHT22;5115;50.920;6.376;2023-04-08T14:29:04;14.50;99.90
10149;DHT22;5115;50.920;6.376;2023-04-08T14:31:31;14.30;99.90
10149;DHT22;5115;50.920;6.376;2023-04-08T14:33:57;14.10;99.90
10149;DHT22;5115;50.920;6.376;2023-04-08T14:36:23;14.20;99.90
10149;DHT22;5115;50.920;6.376;2023-04-08T14:38:49;14.10;99.90
10149;DHT22;5115;50.920;6.376;2023-04-08T14:41:15;14.10;99.90
10149;DHT22;5115;50.920;6.376;2023-04-08T14:43:40;14.10;99.90
10149;DHT22;5115;50.920;6.376;2023-04-08T14:46:06;13.20;99.90
10149;DHT22;5115;50.920;6.376;2023-04-08T14:48:34;14.10;99.90
10149;DHT22;5115;50.920;6.376;2023-04-08T14:51:00;14.20;99.90
10149;DHT22;5115;50.920;6.376;2023-04-08T14:53:26;14.30;99.90
10149;DHT22;5115;50.920;6.376;2023-04-08T14:55:51;14.30;99.90
10149;DHT22;5115;50.920;6.376;2023-04-08T14:58:17;14.40;99.90
10149;DHT22;5115;50.920;6.376;2023-04-08T15:00:44;14.30;99.90
10149;DHT22;5115;50.920;6.376;2023-04-08T15:03:12;14.30;99.90
10149;DHT22;5115;50.920;6.376;2023-04-08T15:05:38;14.40;99.90
10149;DHT22;5115;50.920;6.376;2023-04-08T15:08:04;14.50;99.90
10149;DHT22;5115;50.920;6.376;2023-04-08T15:10:29;14.50;99.90
10149;DHT22;5115;50.920;6.376;2023-04-08T15:12:56;14.10;99.90
10149;DHT22;5115;50.920;6.376;2023-04-08T15:15:21;13.80;99.90
10149;DHT22;5115;50.920;6.376;2023-04-08T15:17:47;13.60;99.90
10149;DHT22;5115;50.920;6.376;2023-04-08T15:20:12;13.70;99.90
10149;DHT22;5115;50.920;6.376;2023-04-08T15:22:38;13.80;99.90
10149;DHT22;5115;50.920;6.376;2023-04-08T15:25:07;13.80;99.90
10149;DHT22;5115;50.920;6.376;2023-04-08T15:27:33;13.80;99.90
10149;DHT22;5115;50.920;6.376;2023-04-08T15:29:59;13.60;99.90
10149;DHT22;5115;50.920;6.376;2023-04-08T15:32:25;13.60;99.90
10149;DHT22;5115;50.920;6.376;2023-04-08T15:34:51;13.60;99.90
10149;DHT22;5115;50.920;6.376;2023-04-08T15:37:16;13.50;99.90
10149;DHT22;5115;50.920;6.376;2023-04-08T15:39:42;13.50;99.90
10149;DHT22;5115;50.920;6.376;2023-04-08T15:42:08;13.50;99.90
10149;DHT22;5115;50.920;6.376;2023-04-08T15:44:33;13.50;99.90
10149;DHT22;5115;50.920;6.376;2023-04-08T15:46:59;13.30;99.90
10149;DHT22;5115;50.920;6.376;2023-04-08T15:49:24;13.30;99.90
10149;DHT22;5115;50.920;6.376;2023-04-08T15:51:50;13.50;99.90
10149;DHT22;5115;50.920;6.376;2023-04-08T15:54:18;13.50;99.90
10149;DHT22;5115;50.920;6.376;2023-04-08T15:56:44;13.60;99.90
10149;DHT22;5115;50.920;6.376;2023-04-08T15:59:11;13.80;99.90
10149;DHT22;5115;50.920;6.376;2023-04-08T16:01:37;13.80;99.90
10149;DHT22;5115;50.920;6.376;2023-04-08T16:04:02;14.00;99.90
10149;DHT22;5115;50.920;6.376;2023-04-08T16:06:27;13.70;99.90
10149;DHT22;5115;50.920;6.376;2023-04-08T16:08:53;13.30;99.90
10149;DHT22;5115;50.920;6.376;2023-04-08T16:11:19;13.30;99.90